Aeroporto :







RITROVATECI SU...

 
LOGIN :

Iscrizione | Disclaimer

   EN    FR    IT 

 









Sommario :    VFR   VFR Marginale   IFR   IFR Intensivo   IFR Molto Intensivo
Visibilità : 
Base nubi : 
>= 8 km
>= 3000ft
5 / 8 km
1000 / 3000 ft
1500m / 5 km
500 / 1000 ft
800 / 1500m
200 / 500 ft
< 800m
< 200 ft
Simboli :   Temporali  Nebbia  Neve Forte  Precipitazioni Forti  Vento > 20 kt






- Altitudine del aeroporto : 117 ft
- Codice IATA : KUS


BGKK - Kulusuk

ULTIMO METAR :
  • 171650Z AUTO 08028G38KT 4700NDV -SN OVC032/// M02/M07 Q1009

METARs OBSOLETI :
  • 171550Z 08026G37KT 9999 VCSH BKN026 M02/M07 Q1009 REFZRA
  • 171450Z 07026KT 9999 VCSH BKN026 M01/M08 Q1009 REFZRA

TAF AMD TAF BGKK
Valido dal 17 a 15 ore il 17 a 19 ore UTC


171555Z 1715/1719 07025KT 9999 BKN025
TEMPO 1715/1719 08028G38KT 7000 -RASN BKN018



MetMap, La meteo Aeronautica in un colpo d'occhio ! - Copyright ORBIFLY Dicembre 2007 - Disclaimer

ORBIFLY MET'MAP TEAM :

Programmazione e sviluppo : Alexandra Zaïnal
Concezione e sviluppo : Baudouin d'Aumeries
Co-Programmazione e sviluppo : Marc-Olivier Méhu
Supporto tecnico e logistico : Manuel Goepfert
Aiuto per la traduzione : Arnaldo La Scala

Contatto : metmap@orbifly.com




FONTI E CREDITI :

   NOAA